sensor_id;sensor_type;location;lat;lon;timestamp;P1;durP1;ratioP1;P2;durP2;ratioP2
71622;SDS011;59473;53.214;5.728;2023-12-14T00:01:26;10.18;;;6.82;;
71622;SDS011;59473;53.214;5.728;2023-12-14T00:03:51;12.50;;;6.22;;
71622;SDS011;59473;53.214;5.728;2023-12-14T00:06:16;13.38;;;7.15;;
71622;SDS011;59473;53.214;5.728;2023-12-14T00:08:41;18.35;;;7.97;;
71622;SDS011;59473;53.214;5.728;2023-12-14T00:11:07;16.65;;;6.68;;
71622;SDS011;59473;53.214;5.728;2023-12-14T00:13:33;15.83;;;6.63;;
71622;SDS011;59473;53.214;5.728;2023-12-14T00:15:58;12.30;;;6.80;;
71622;SDS011;59473;53.214;5.728;2023-12-14T00:18:23;15.50;;;7.27;;
71622;SDS011;59473;53.214;5.728;2023-12-14T00:20:48;14.93;;;6.00;;
71622;SDS011;59473;53.214;5.728;2023-12-14T00:23:14;14.80;;;6.80;;
71622;SDS011;59473;53.214;5.728;2023-12-14T00:25:39;17.02;;;7.75;;
71622;SDS011;59473;53.214;5.728;2023-12-14T00:28:04;10.95;;;6.53;;
71622;SDS011;59473;53.214;5.728;2023-12-14T00:30:30;10.13;;;6.30;;
71622;SDS011;59473;53.214;5.728;2023-12-14T00:32:55;11.33;;;7.07;;
71622;SDS011;59473;53.214;5.728;2023-12-14T00:35:20;7.33;;;5.50;;
71622;SDS011;59473;53.214;5.728;2023-12-14T00:37:45;9.70;;;4.67;;
71622;SDS011;59473;53.214;5.728;2023-12-14T00:40:11;6.00;;;4.53;;
71622;SDS011;59473;53.214;5.728;2023-12-14T00:42:36;8.70;;;6.17;;
71622;SDS011;59473;53.214;5.728;2023-12-14T00:45:01;7.27;;;5.37;;
71622;SDS011;59473;53.214;5.728;2023-12-14T00:47:27;8.50;;;6.17;;
71622;SDS011;59473;53.214;5.728;2023-12-14T00:49:52;9.87;;;5.73;;
71622;SDS011;59473;53.214;5.728;2023-12-14T00:52:17;8.73;;;5.50;;
71622;SDS011;59473;53.214;5.728;2023-12-14T00:54:42;9.27;;;5.43;;
71622;SDS011;59473;53.214;5.728;2023-12-14T00:57:08;7.93;;;6.03;;
71622;SDS011;59473;53.214;5.728;2023-12-14T00:59:33;11.27;;;6.00;;
71622;SDS011;59473;53.214;5.728;2023-12-14T01:01:58;11.33;;;7.03;;
71622;SDS011;59473;53.214;5.728;2023-12-14T01:04:23;9.43;;;6.78;;
71622;SDS011;59473;53.214;5.728;2023-12-14T01:06:49;12.63;;;7.13;;
71622;SDS011;59473;53.214;5.728;2023-12-14T01:09:14;11.83;;;6.83;;
71622;SDS011;59473;53.214;5.728;2023-12-14T01:11:39;11.45;;;7.28;;
71622;SDS011;59473;53.214;5.728;2023-12-14T01:14:04;11.13;;;7.00;;
71622;SDS011;59473;53.214;5.728;2023-12-14T01:16:30;14.88;;;7.20;;
71622;SDS011;59473;53.214;5.728;2023-12-14T01:18:55;10.23;;;6.75;;
71622;SDS011;59473;53.214;5.728;2023-12-14T01:21:20;14.63;;;6.65;;
71622;SDS011;59473;53.214;5.728;2023-12-14T01:23:45;9.68;;;6.80;;
71622;SDS011;59473;53.214;5.728;2023-12-14T01:26:10;11.77;;;6.78;;
71622;SDS011;59473;53.214;5.728;2023-12-14T01:28:36;12.53;;;6.47;;
71622;SDS011;59473;53.214;5.728;2023-12-14T01:31:01;10.73;;;6.43;;
71622;SDS011;59473;53.214;5.728;2023-12-14T01:33:26;10.87;;;6.53;;
71622;SDS011;59473;53.214;5.728;2023-12-14T01:35:51;15.80;;;7.23;;
71622;SDS011;59473;53.214;5.728;2023-12-14T01:38:17;11.83;;;5.97;;
71622;SDS011;59473;53.214;5.728;2023-12-14T01:40:42;11.20;;;6.80;;
71622;SDS011;59473;53.214;5.728;2023-12-14T01:43:08;8.43;;;5.70;;
71622;SDS011;59473;53.214;5.728;2023-12-14T01:45:34;11.53;;;6.93;;
71622;SDS011;59473;53.214;5.728;2023-12-14T01:47:59;11.67;;;6.60;;
71622;SDS011;59473;53.214;5.728;2023-12-14T01:50:24;10.87;;;6.73;;
71622;SDS011;59473;53.214;5.728;2023-12-14T01:52:49;14.00;;;6.33;;
71622;SDS011;59473;53.214;5.728;2023-12-14T01:55:15;15.53;;;7.03;;
71622;SDS011;59473;53.214;5.728;2023-12-14T01:57:40;10.70;;;6.60;;
71622;SDS011;59473;53.214;5.728;2023-12-14T02:00:05;12.13;;;6.93;;
71622;SDS011;59473;53.214;5.728;2023-12-14T02:02:31;12.15;;;7.15;;
71622;SDS011;59473;53.214;5.728;2023-12-14T02:04:56;13.97;;;7.53;;
71622;SDS011;59473;53.214;5.728;2023-12-14T02:07:21;14.33;;;7.50;;
71622;SDS011;59473;53.214;5.728;2023-12-14T02:09:46;13.93;;;7.57;;
71622;SDS011;59473;53.214;5.728;2023-12-14T02:12:12;15.50;;;7.90;;
71622;SDS011;59473;53.214;5.728;2023-12-14T02:14:37;15.60;;;7.43;;
71622;SDS011;59473;53.214;5.728;2023-12-14T02:17:02;15.33;;;7.37;;
71622;SDS011;59473;53.214;5.728;2023-12-14T02:19:27;16.07;;;7.57;;
71622;SDS011;59473;53.214;5.728;2023-12-14T02:21:53;11.13;;;5.97;;
71622;SDS011;59473;53.214;5.728;2023-12-14T02:24:18;15.17;;;6.17;;
71622;SDS011;59473;53.214;5.728;2023-12-14T02:26:43;16.17;;;7.23;;
71622;SDS011;59473;53.214;5.728;2023-12-14T02:29:08;11.20;;;7.57;;
71622;SDS011;59473;53.214;5.728;2023-12-14T02:31:34;12.60;;;5.87;;
71622;SDS011;59473;53.214;5.728;2023-12-14T02:33:59;12.83;;;6.10;;
71622;SDS011;59473;53.214;5.728;2023-12-14T02:36:24;15.83;;;7.17;;
71622;SDS011;59473;53.214;5.728;2023-12-14T02:38:49;14.57;;;6.97;;
71622;SDS011;59473;53.214;5.728;2023-12-14T02:41:14;11.90;;;5.80;;
71622;SDS011;59473;53.214;5.728;2023-12-14T02:43:40;14.13;;;6.90;;
71622;SDS011;59473;53.214;5.728;2023-12-14T02:46:05;15.10;;;7.13;;
71622;SDS011;59473;53.214;5.728;2023-12-14T02:48:31;11.43;;;7.03;;
71622;SDS011;59473;53.214;5.728;2023-12-14T02:50:56;13.60;;;6.35;;
71622;SDS011;59473;53.214;5.728;2023-12-14T02:53:21;15.52;;;7.25;;
71622;SDS011;59473;53.214;5.728;2023-12-14T02:55:47;10.80;;;7.10;;
71622;SDS011;59473;53.214;5.728;2023-12-14T02:58:12;12.53;;;6.60;;
71622;SDS011;59473;53.214;5.728;2023-12-14T03:00:37;11.13;;;6.97;;
71622;SDS011;59473;53.214;5.728;2023-12-14T03:03:02;10.87;;;6.33;;
71622;SDS011;59473;53.214;5.728;2023-12-14T03:05:28;17.33;;;7.40;;
71622;SDS011;59473;53.214;5.728;2023-12-14T03:07:53;13.57;;;6.70;;
71622;SDS011;59473;53.214;5.728;2023-12-14T03:10:18;15.60;;;7.40;;
71622;SDS011;59473;53.214;5.728;2023-12-14T03:12:43;12.27;;;7.67;;
71622;SDS011;59473;53.214;5.728;2023-12-14T03:15:09;15.40;;;9.43;;
71622;SDS011;59473;53.214;5.728;2023-12-14T03:17:34;19.20;;;8.77;;
71622;SDS011;59473;53.214;5.728;2023-12-14T03:19:59;19.03;;;7.97;;
71622;SDS011;59473;53.214;5.728;2023-12-14T03:22:24;12.43;;;7.43;;
71622;SDS011;59473;53.214;5.728;2023-12-14T03:24:50;13.33;;;7.80;;
71622;SDS011;59473;53.214;5.728;2023-12-14T03:27:15;17.07;;;8.67;;
71622;SDS011;59473;53.214;5.728;2023-12-14T03:29:40;18.90;;;9.03;;
71622;SDS011;59473;53.214;5.728;2023-12-14T03:32:06;17.93;;;8.70;;
71622;SDS011;59473;53.214;5.728;2023-12-14T03:34:31;14.60;;;7.70;;
71622;SDS011;59473;53.214;5.728;2023-12-14T03:36:56;17.33;;;8.80;;
71622;SDS011;59473;53.214;5.728;2023-12-14T03:39:21;14.30;;;8.57;;
71622;SDS011;59473;53.214;5.728;2023-12-14T03:41:46;14.00;;;7.17;;
71622;SDS011;59473;53.214;5.728;2023-12-14T03:44:12;18.87;;;8.70;;
71622;SDS011;59473;53.214;5.728;2023-12-14T03:46:37;17.47;;;8.87;;
71622;SDS011;59473;53.214;5.728;2023-12-14T03:49:02;13.57;;;7.93;;
71622;SDS011;59473;53.214;5.728;2023-12-14T03:51:28;14.30;;;8.07;;
71622;SDS011;59473;53.214;5.728;2023-12-14T03:53:53;20.00;;;8.70;;
71622;SDS011;59473;53.214;5.728;2023-12-14T03:56:19;11.60;;;6.50;;
71622;SDS011;59473;53.214;5.728;2023-12-14T03:58:44;16.97;;;9.87;;
71622;SDS011;59473;53.214;5.728;2023-12-14T04:01:18;17.50;;;9.63;;
71622;SDS011;59473;53.214;5.728;2023-12-14T04:03:44;16.08;;;7.38;;
71622;SDS011;59473;53.214;5.728;2023-12-14T04:06:10;15.43;;;8.83;;
71622;SDS011;59473;53.214;5.728;2023-12-14T04:08:36;14.45;;;8.52;;
71622;SDS011;59473;53.214;5.728;2023-12-14T04:11:01;19.40;;;8.00;;
71622;SDS011;59473;53.214;5.728;2023-12-14T04:13:26;14.70;;;8.53;;
71622;SDS011;59473;53.214;5.728;2023-12-14T04:15:52;16.90;;;7.80;;
71622;SDS011;59473;53.214;5.728;2023-12-14T04:18:17;26.17;;;8.73;;
71622;SDS011;59473;53.214;5.728;2023-12-14T04:20:42;15.37;;;8.17;;
71622;SDS011;59473;53.214;5.728;2023-12-14T04:23:08;15.23;;;7.97;;
71622;SDS011;59473;53.214;5.728;2023-12-14T04:25:33;18.33;;;7.13;;
71622;SDS011;59473;53.214;5.728;2023-12-14T04:27:58;17.73;;;8.63;;
71622;SDS011;59473;53.214;5.728;2023-12-14T04:30:24;14.80;;;7.60;;
71622;SDS011;59473;53.214;5.728;2023-12-14T04:32:49;17.47;;;9.63;;
71622;SDS011;59473;53.214;5.728;2023-12-14T04:35:14;13.33;;;7.83;;
71622;SDS011;59473;53.214;5.728;2023-12-14T04:37:39;16.47;;;7.67;;
71622;SDS011;59473;53.214;5.728;2023-12-14T04:40:05;13.80;;;7.63;;
71622;SDS011;59473;53.214;5.728;2023-12-14T04:42:30;12.87;;;7.97;;
71622;SDS011;59473;53.214;5.728;2023-12-14T04:44:55;16.98;;;8.57;;
71622;SDS011;59473;53.214;5.728;2023-12-14T04:47:20;16.05;;;8.00;;
71622;SDS011;59473;53.214;5.728;2023-12-14T04:49:46;18.63;;;9.70;;
71622;SDS011;59473;53.214;5.728;2023-12-14T04:52:11;20.35;;;8.40;;
71622;SDS011;59473;53.214;5.728;2023-12-14T04:54:36;19.33;;;8.57;;
71622;SDS011;59473;53.214;5.728;2023-12-14T04:57:04;14.73;;;8.25;;
71622;SDS011;59473;53.214;5.728;2023-12-14T04:59:29;18.23;;;8.43;;
71622;SDS011;59473;53.214;5.728;2023-12-14T05:01:54;17.90;;;8.77;;
71622;SDS011;59473;53.214;5.728;2023-12-14T05:04:19;17.33;;;8.63;;
71622;SDS011;59473;53.214;5.728;2023-12-14T05:06:45;17.95;;;8.55;;
71622;SDS011;59473;53.214;5.728;2023-12-14T05:09:10;14.77;;;8.67;;
71622;SDS011;59473;53.214;5.728;2023-12-14T05:11:36;20.35;;;9.85;;
71622;SDS011;59473;53.214;5.728;2023-12-14T05:14:02;18.38;;;9.90;;
71622;SDS011;59473;53.214;5.728;2023-12-14T05:16:28;17.97;;;8.27;;
71622;SDS011;59473;53.214;5.728;2023-12-14T05:18:53;20.30;;;7.67;;
71622;SDS011;59473;53.214;5.728;2023-12-14T05:21:18;16.45;;;8.73;;
71622;SDS011;59473;53.214;5.728;2023-12-14T05:23:44;11.30;;;6.53;;
71622;SDS011;59473;53.214;5.728;2023-12-14T05:26:09;10.90;;;7.07;;
71622;SDS011;59473;53.214;5.728;2023-12-14T05:28:34;18.10;;;7.97;;
71622;SDS011;59473;53.214;5.728;2023-12-14T05:31:00;13.33;;;8.30;;
71622;SDS011;59473;53.214;5.728;2023-12-14T05:33:25;18.60;;;8.03;;
71622;SDS011;59473;53.214;5.728;2023-12-14T05:35:50;14.53;;;8.93;;
71622;SDS011;59473;53.214;5.728;2023-12-14T05:38:16;17.73;;;8.53;;
71622;SDS011;59473;53.214;5.728;2023-12-14T05:40:41;15.83;;;8.47;;
71622;SDS011;59473;53.214;5.728;2023-12-14T05:43:07;18.35;;;8.20;;
71622;SDS011;59473;53.214;5.728;2023-12-14T05:45:32;16.10;;;8.67;;
71622;SDS011;59473;53.214;5.728;2023-12-14T05:47:57;15.33;;;8.07;;
71622;SDS011;59473;53.214;5.728;2023-12-14T05:50:22;14.77;;;8.73;;
71622;SDS011;59473;53.214;5.728;2023-12-14T05:52:48;16.87;;;8.23;;
71622;SDS011;59473;53.214;5.728;2023-12-14T05:55:13;17.17;;;8.33;;
71622;SDS011;59473;53.214;5.728;2023-12-14T05:57:38;16.63;;;8.10;;
71622;SDS011;59473;53.214;5.728;2023-12-14T06:00:04;14.67;;;7.40;;
71622;SDS011;59473;53.214;5.728;2023-12-14T06:02:30;18.97;;;8.40;;
71622;SDS011;59473;53.214;5.728;2023-12-14T06:04:56;17.95;;;8.25;;
71622;SDS011;59473;53.214;5.728;2023-12-14T06:07:22;14.25;;;7.88;;
71622;SDS011;59473;53.214;5.728;2023-12-14T06:09:48;14.63;;;7.83;;
71622;SDS011;59473;53.214;5.728;2023-12-14T06:12:13;17.57;;;8.60;;
71622;SDS011;59473;53.214;5.728;2023-12-14T06:14:39;16.60;;;6.72;;
71622;SDS011;59473;53.214;5.728;2023-12-14T06:17:04;14.90;;;7.82;;
71622;SDS011;59473;53.214;5.728;2023-12-14T06:19:29;13.97;;;8.00;;
71622;SDS011;59473;53.214;5.728;2023-12-14T06:21:54;17.27;;;8.57;;
71622;SDS011;59473;53.214;5.728;2023-12-14T06:24:20;16.30;;;7.97;;
71622;SDS011;59473;53.214;5.728;2023-12-14T06:26:47;19.10;;;7.87;;
71622;SDS011;59473;53.214;5.728;2023-12-14T06:29:13;18.75;;;8.10;;
71622;SDS011;59473;53.214;5.728;2023-12-14T06:31:38;17.60;;;7.00;;
71622;SDS011;59473;53.214;5.728;2023-12-14T06:34:04;14.85;;;7.30;;
71622;SDS011;59473;53.214;5.728;2023-12-14T06:36:30;16.45;;;7.65;;
71622;SDS011;59473;53.214;5.728;2023-12-14T06:38:55;13.03;;;6.73;;
71622;SDS011;59473;53.214;5.728;2023-12-14T06:41:21;15.17;;;7.67;;
71622;SDS011;59473;53.214;5.728;2023-12-14T06:43:46;15.48;;;7.32;;
71622;SDS011;59473;53.214;5.728;2023-12-14T06:46:12;18.10;;;7.97;;
71622;SDS011;59473;53.214;5.728;2023-12-14T06:48:37;13.00;;;7.57;;
71622;SDS011;59473;53.214;5.728;2023-12-14T06:51:02;18.63;;;8.17;;
71622;SDS011;59473;53.214;5.728;2023-12-14T06:53:27;14.57;;;7.57;;
71622;SDS011;59473;53.214;5.728;2023-12-14T06:55:52;12.27;;;7.17;;
71622;SDS011;59473;53.214;5.728;2023-12-14T06:58:18;15.70;;;8.20;;
71622;SDS011;59473;53.214;5.728;2023-12-14T07:00:43;17.43;;;8.50;;
71622;SDS011;59473;53.214;5.728;2023-12-14T07:03:08;18.90;;;9.07;;
71622;SDS011;59473;53.214;5.728;2023-12-14T07:05:33;20.80;;;9.60;;
71622;SDS011;59473;53.214;5.728;2023-12-14T07:07:59;19.83;;;9.67;;
71622;SDS011;59473;53.214;5.728;2023-12-14T07:10:24;22.87;;;9.30;;
71622;SDS011;59473;53.214;5.728;2023-12-14T07:12:49;15.38;;;9.45;;
71622;SDS011;59473;53.214;5.728;2023-12-14T07:15:15;17.17;;;7.90;;
71622;SDS011;59473;53.214;5.728;2023-12-14T07:17:41;14.87;;;7.97;;
71622;SDS011;59473;53.214;5.728;2023-12-14T07:20:06;14.33;;;7.90;;
71622;SDS011;59473;53.214;5.728;2023-12-14T07:22:32;341.42;;;19.63;;
71622;SDS011;59473;53.214;5.728;2023-12-14T07:24:57;13.47;;;8.17;;
71622;SDS011;59473;53.214;5.728;2023-12-14T07:27:22;14.87;;;8.60;;
71622;SDS011;59473;53.214;5.728;2023-12-14T07:29:47;16.10;;;8.27;;
71622;SDS011;59473;53.214;5.728;2023-12-14T07:32:12;13.30;;;7.43;;
71622;SDS011;59473;53.214;5.728;2023-12-14T07:34:38;13.27;;;8.03;;
71622;SDS011;59473;53.214;5.728;2023-12-14T07:37:03;23.40;;;8.43;;
71622;SDS011;59473;53.214;5.728;2023-12-14T07:39:28;16.43;;;8.53;;
71622;SDS011;59473;53.214;5.728;2023-12-14T07:41:53;15.27;;;7.87;;
71622;SDS011;59473;53.214;5.728;2023-12-14T07:44:19;16.40;;;8.10;;
71622;SDS011;59473;53.214;5.728;2023-12-14T07:46:45;15.95;;;8.52;;
71622;SDS011;59473;53.214;5.728;2023-12-14T07:49:10;15.63;;;7.57;;
71622;SDS011;59473;53.214;5.728;2023-12-14T07:51:35;18.07;;;8.00;;
71622;SDS011;59473;53.214;5.728;2023-12-14T07:54:00;17.90;;;8.63;;
71622;SDS011;59473;53.214;5.728;2023-12-14T07:56:28;16.25;;;8.52;;
71622;SDS011;59473;53.214;5.728;2023-12-14T07:58:53;16.87;;;8.37;;
71622;SDS011;59473;53.214;5.728;2023-12-14T08:01:19;14.33;;;8.17;;
71622;SDS011;59473;53.214;5.728;2023-12-14T08:03:45;29.33;;;8.43;;
71622;SDS011;59473;53.214;5.728;2023-12-14T08:06:11;20.45;;;8.45;;
71622;SDS011;59473;53.214;5.728;2023-12-14T08:08:36;16.40;;;7.37;;
71622;SDS011;59473;53.214;5.728;2023-12-14T08:11:03;15.70;;;7.03;;
71622;SDS011;59473;53.214;5.728;2023-12-14T08:13:28;15.40;;;8.40;;
71622;SDS011;59473;53.214;5.728;2023-12-14T08:15:53;17.67;;;8.73;;
71622;SDS011;59473;53.214;5.728;2023-12-14T08:18:18;14.73;;;7.40;;
71622;SDS011;59473;53.214;5.728;2023-12-14T08:20:43;14.60;;;7.60;;
71622;SDS011;59473;53.214;5.728;2023-12-14T08:23:09;19.80;;;7.37;;
71622;SDS011;59473;53.214;5.728;2023-12-14T08:25:34;17.13;;;8.07;;
71622;SDS011;59473;53.214;5.728;2023-12-14T08:27:59;18.10;;;8.70;;
71622;SDS011;59473;53.214;5.728;2023-12-14T08:30:24;18.17;;;7.53;;
71622;SDS011;59473;53.214;5.728;2023-12-14T08:32:50;19.83;;;8.10;;
71622;SDS011;59473;53.214;5.728;2023-12-14T08:35:15;17.90;;;8.27;;
71622;SDS011;59473;53.214;5.728;2023-12-14T08:37:40;14.23;;;7.20;;
71622;SDS011;59473;53.214;5.728;2023-12-14T08:40:06;15.87;;;7.73;;
71622;SDS011;59473;53.214;5.728;2023-12-14T08:42:32;21.17;;;9.68;;
71622;SDS011;59473;53.214;5.728;2023-12-14T08:44:57;20.10;;;10.23;;
71622;SDS011;59473;53.214;5.728;2023-12-14T08:47:22;37.20;;;14.67;;
71622;SDS011;59473;53.214;5.728;2023-12-14T08:49:48;57.63;;;22.17;;
71622;SDS011;59473;53.214;5.728;2023-12-14T08:52:13;68.67;;;29.60;;
71622;SDS011;59473;53.214;5.728;2023-12-14T08:54:39;46.63;;;19.80;;
71622;SDS011;59473;53.214;5.728;2023-12-14T08:57:04;41.30;;;20.57;;
71622;SDS011;59473;53.214;5.728;2023-12-14T08:59:29;57.73;;;26.93;;
71622;SDS011;59473;53.214;5.728;2023-12-14T09:01:55;26.60;;;12.43;;
71622;SDS011;59473;53.214;5.728;2023-12-14T09:04:20;18.73;;;11.10;;
71622;SDS011;59473;53.214;5.728;2023-12-14T09:06:46;17.88;;;8.98;;
71622;SDS011;59473;53.214;5.728;2023-12-14T09:09:11;20.07;;;10.10;;
71622;SDS011;59473;53.214;5.728;2023-12-14T09:11:36;21.97;;;10.43;;
71622;SDS011;59473;53.214;5.728;2023-12-14T09:14:02;18.73;;;8.97;;
71622;SDS011;59473;53.214;5.728;2023-12-14T09:16:27;16.63;;;8.50;;
71622;SDS011;59473;53.214;5.728;2023-12-14T09:18:52;15.67;;;9.33;;
71622;SDS011;59473;53.214;5.728;2023-12-14T09:21:18;11.57;;;7.10;;
71622;SDS011;59473;53.214;5.728;2023-12-14T09:23:43;14.57;;;8.73;;
71622;SDS011;59473;53.214;5.728;2023-12-14T09:26:08;14.77;;;8.63;;
71622;SDS011;59473;53.214;5.728;2023-12-14T09:28:33;15.90;;;8.57;;
71622;SDS011;59473;53.214;5.728;2023-12-14T09:31:00;17.13;;;7.70;;
71622;SDS011;59473;53.214;5.728;2023-12-14T09:33:25;17.50;;;7.97;;
71622;SDS011;59473;53.214;5.728;2023-12-14T09:35:50;16.83;;;7.23;;
71622;SDS011;59473;53.214;5.728;2023-12-14T09:38:15;14.43;;;8.27;;
71622;SDS011;59473;53.214;5.728;2023-12-14T09:40:43;18.20;;;8.70;;
71622;SDS011;59473;53.214;5.728;2023-12-14T09:43:08;17.35;;;9.57;;
71622;SDS011;59473;53.214;5.728;2023-12-14T09:45:33;21.00;;;9.80;;
71622;SDS011;59473;53.214;5.728;2023-12-14T09:47:59;20.33;;;9.63;;
71622;SDS011;59473;53.214;5.728;2023-12-14T09:50:25;22.08;;;10.90;;
71622;SDS011;59473;53.214;5.728;2023-12-14T09:52:50;19.53;;;10.27;;
71622;SDS011;59473;53.214;5.728;2023-12-14T09:55:16;23.33;;;11.37;;
71622;SDS011;59473;53.214;5.728;2023-12-14T09:57:41;25.90;;;11.43;;
71622;SDS011;59473;53.214;5.728;2023-12-14T10:00:07;24.23;;;11.20;;
71622;SDS011;59473;53.214;5.728;2023-12-14T10:02:35;17.20;;;9.38;;
71622;SDS011;59473;53.214;5.728;2023-12-14T10:05:01;27.10;;;10.77;;
71622;SDS011;59473;53.214;5.728;2023-12-14T10:07:26;21.47;;;11.13;;
71622;SDS011;59473;53.214;5.728;2023-12-14T10:09:51;21.27;;;9.33;;
71622;SDS011;59473;53.214;5.728;2023-12-14T10:12:18;19.70;;;10.65;;
71622;SDS011;59473;53.214;5.728;2023-12-14T10:14:43;21.23;;;10.60;;
71622;SDS011;59473;53.214;5.728;2023-12-14T10:19:41;20.27;;;8.95;;
71622;SDS011;59473;53.214;5.728;2023-12-14T10:22:07;20.48;;;9.10;;
71622;SDS011;59473;53.214;5.728;2023-12-14T10:24:33;16.60;;;8.60;;
71622;SDS011;59473;53.214;5.728;2023-12-14T10:26:58;18.73;;;9.27;;
71622;SDS011;59473;53.214;5.728;2023-12-14T10:29:24;17.80;;;7.73;;
71622;SDS011;59473;53.214;5.728;2023-12-14T10:31:49;20.17;;;8.67;;
71622;SDS011;59473;53.214;5.728;2023-12-14T10:34:15;16.93;;;9.03;;
71622;SDS011;59473;53.214;5.728;2023-12-14T10:36:40;17.00;;;8.77;;
71622;SDS011;59473;53.214;5.728;2023-12-14T10:39:08;13.93;;;8.73;;
71622;SDS011;59473;53.214;5.728;2023-12-14T10:41:37;15.55;;;8.55;;
71622;SDS011;59473;53.214;5.728;2023-12-14T10:44:04;19.73;;;8.80;;
71622;SDS011;59473;53.214;5.728;2023-12-14T10:46:30;19.55;;;8.27;;
71622;SDS011;59473;53.214;5.728;2023-12-14T10:48:56;15.63;;;7.80;;
71622;SDS011;59473;53.214;5.728;2023-12-14T10:51:22;15.03;;;8.17;;
71622;SDS011;59473;53.214;5.728;2023-12-14T10:53:48;14.20;;;7.82;;
71622;SDS011;59473;53.214;5.728;2023-12-14T10:56:14;13.50;;;7.77;;
71622;SDS011;59473;53.214;5.728;2023-12-14T10:58:55;18.70;;;8.10;;
71622;SDS011;59473;53.214;5.728;2023-12-14T11:01:22;11.80;;;7.15;;
71622;SDS011;59473;53.214;5.728;2023-12-14T11:03:49;12.77;;;8.18;;
71622;SDS011;59473;53.214;5.728;2023-12-14T11:06:48;13.63;;;7.50;;
71622;SDS011;59473;53.214;5.728;2023-12-14T11:09:12;16.20;;;8.02;;
71622;SDS011;59473;53.214;5.728;2023-12-14T11:14:18;15.48;;;7.93;;
71622;SDS011;59473;53.214;5.728;2023-12-14T11:16:43;14.60;;;7.97;;
71622;SDS011;59473;53.214;5.728;2023-12-14T11:24:18;13.70;;;7.33;;
71622;SDS011;59473;53.214;5.728;2023-12-14T11:26:43;15.65;;;7.90;;
71622;SDS011;59473;53.214;5.728;2023-12-14T11:29:08;13.93;;;6.50;;
71622;SDS011;59473;53.214;5.728;2023-12-14T11:31:34;9.10;;;6.40;;
71622;SDS011;59473;53.214;5.728;2023-12-14T11:34:00;13.35;;;7.20;;
71622;SDS011;59473;53.214;5.728;2023-12-14T11:36:26;14.33;;;8.10;;
71622;SDS011;59473;53.214;5.728;2023-12-14T11:38:51;14.07;;;7.88;;
71622;SDS011;59473;53.214;5.728;2023-12-14T11:41:20;16.77;;;7.85;;
71622;SDS011;59473;53.214;5.728;2023-12-14T11:43:45;13.63;;;6.80;;
71622;SDS011;59473;53.214;5.728;2023-12-14T11:46:11;17.47;;;7.53;;
71622;SDS011;59473;53.214;5.728;2023-12-14T11:48:36;15.30;;;7.50;;
71622;SDS011;59473;53.214;5.728;2023-12-14T11:51:01;18.27;;;7.20;;
71622;SDS011;59473;53.214;5.728;2023-12-14T11:53:27;16.85;;;6.80;;
71622;SDS011;59473;53.214;5.728;2023-12-14T11:55:52;16.13;;;7.37;;
71622;SDS011;59473;53.214;5.728;2023-12-14T11:58:18;15.87;;;8.07;;
71622;SDS011;59473;53.214;5.728;2023-12-14T12:00:44;12.60;;;7.22;;
71622;SDS011;59473;53.214;5.728;2023-12-14T12:03:12;14.45;;;7.10;;
71622;SDS011;59473;53.214;5.728;2023-12-14T12:05:48;12.73;;;6.33;;
71622;SDS011;59473;53.214;5.728;2023-12-14T12:08:14;12.35;;;6.88;;
71622;SDS011;59473;53.214;5.728;2023-12-14T12:10:39;12.32;;;7.13;;
71622;SDS011;59473;53.214;5.728;2023-12-14T12:13:15;14.77;;;6.80;;
71622;SDS011;59473;53.214;5.728;2023-12-14T12:15:41;13.83;;;7.40;;
71622;SDS011;59473;53.214;5.728;2023-12-14T12:18:07;12.63;;;6.97;;
71622;SDS011;59473;53.214;5.728;2023-12-14T12:20:33;17.88;;;8.32;;
71622;SDS011;59473;53.214;5.728;2023-12-14T12:22:58;11.80;;;7.20;;
71622;SDS011;59473;53.214;5.728;2023-12-14T12:25:23;14.75;;;7.50;;
71622;SDS011;59473;53.214;5.728;2023-12-14T12:27:49;12.07;;;6.60;;
71622;SDS011;59473;53.214;5.728;2023-12-14T12:30:14;12.37;;;6.47;;
71622;SDS011;59473;53.214;5.728;2023-12-14T12:32:40;13.10;;;6.80;;
71622;SDS011;59473;53.214;5.728;2023-12-14T12:35:05;12.73;;;6.80;;
71622;SDS011;59473;53.214;5.728;2023-12-14T12:37:31;14.00;;;7.47;;
71622;SDS011;59473;53.214;5.728;2023-12-14T12:39:56;13.17;;;7.40;;
71622;SDS011;59473;53.214;5.728;2023-12-14T12:42:21;11.53;;;6.67;;
71622;SDS011;59473;53.214;5.728;2023-12-14T12:44:46;12.57;;;6.07;;
71622;SDS011;59473;53.214;5.728;2023-12-14T12:47:12;12.00;;;7.13;;
71622;SDS011;59473;53.214;5.728;2023-12-14T12:49:37;11.80;;;6.17;;
71622;SDS011;59473;53.214;5.728;2023-12-14T12:52:03;10.75;;;6.45;;
71622;SDS011;59473;53.214;5.728;2023-12-14T12:54:30;10.90;;;6.77;;
71622;SDS011;59473;53.214;5.728;2023-12-14T12:56:55;11.98;;;6.28;;
71622;SDS011;59473;53.214;5.728;2023-12-14T12:59:21;11.03;;;6.30;;
71622;SDS011;59473;53.214;5.728;2023-12-14T13:01:46;12.37;;;7.20;;
71622;SDS011;59473;53.214;5.728;2023-12-14T13:04:21;12.80;;;7.13;;
71622;SDS011;59473;53.214;5.728;2023-12-14T13:06:47;12.98;;;6.60;;
71622;SDS011;59473;53.214;5.728;2023-12-14T13:09:13;12.10;;;6.95;;
71622;SDS011;59473;53.214;5.728;2023-12-14T13:11:39;15.23;;;7.57;;
71622;SDS011;59473;53.214;5.728;2023-12-14T13:14:04;16.57;;;6.80;;
71622;SDS011;59473;53.214;5.728;2023-12-14T13:16:32;11.43;;;6.40;;
71622;SDS011;59473;53.214;5.728;2023-12-14T13:18:58;16.23;;;6.67;;
71622;SDS011;59473;53.214;5.728;2023-12-14T13:21:23;11.07;;;7.67;;
71622;SDS011;59473;53.214;5.728;2023-12-14T13:23:48;12.80;;;7.10;;
71622;SDS011;59473;53.214;5.728;2023-12-14T13:26:15;10.30;;;6.25;;
71622;SDS011;59473;53.214;5.728;2023-12-14T13:28:41;13.70;;;7.00;;
71622;SDS011;59473;53.214;5.728;2023-12-14T13:31:06;15.13;;;7.47;;
71622;SDS011;59473;53.214;5.728;2023-12-14T13:33:31;13.13;;;6.67;;
71622;SDS011;59473;53.214;5.728;2023-12-14T13:35:56;13.93;;;7.27;;
71622;SDS011;59473;53.214;5.728;2023-12-14T13:38:22;14.30;;;6.73;;
71622;SDS011;59473;53.214;5.728;2023-12-14T13:40:47;12.83;;;7.17;;
71622;SDS011;59473;53.214;5.728;2023-12-14T13:43:12;17.50;;;7.97;;
71622;SDS011;59473;53.214;5.728;2023-12-14T13:45:38;21.02;;;8.27;;
71622;SDS011;59473;53.214;5.728;2023-12-14T13:48:03;29.73;;;11.37;;
71622;SDS011;59473;53.214;5.728;2023-12-14T13:50:29;30.83;;;11.50;;
71622;SDS011;59473;53.214;5.728;2023-12-14T13:52:54;27.40;;;10.80;;
71622;SDS011;59473;53.214;5.728;2023-12-14T13:55:20;25.07;;;10.23;;
71622;SDS011;59473;53.214;5.728;2023-12-14T13:57:46;20.13;;;10.18;;
71622;SDS011;59473;53.214;5.728;2023-12-14T14:00:12;14.70;;;8.18;;
71622;SDS011;59473;53.214;5.728;2023-12-14T14:02:38;12.90;;;8.43;;
71622;SDS011;59473;53.214;5.728;2023-12-14T14:05:03;14.07;;;7.70;;
71622;SDS011;59473;53.214;5.728;2023-12-14T14:07:28;12.60;;;7.37;;
71622;SDS011;59473;53.214;5.728;2023-12-14T14:09:54;15.97;;;8.17;;
71622;SDS011;59473;53.214;5.728;2023-12-14T14:12:19;13.13;;;7.80;;
71622;SDS011;59473;53.214;5.728;2023-12-14T14:14:44;15.53;;;7.97;;
71622;SDS011;59473;53.214;5.728;2023-12-14T14:17:09;14.00;;;8.40;;
71622;SDS011;59473;53.214;5.728;2023-12-14T14:19:35;12.27;;;8.10;;
71622;SDS011;59473;53.214;5.728;2023-12-14T14:22:00;12.93;;;7.17;;
71622;SDS011;59473;53.214;5.728;2023-12-14T14:24:25;13.27;;;7.50;;
71622;SDS011;59473;53.214;5.728;2023-12-14T14:26:51;15.90;;;7.77;;
71622;SDS011;59473;53.214;5.728;2023-12-14T14:29:17;13.15;;;7.43;;
71622;SDS011;59473;53.214;5.728;2023-12-14T14:31:43;14.40;;;7.90;;
71622;SDS011;59473;53.214;5.728;2023-12-14T14:34:08;13.07;;;7.37;;